Time;durP1;ratioP1;P1;durP2;ratioP2;P2;SDS_P1;SDS_P2;PMS_P1;PMS_P2;Temp;Humidity;BMP_temperature;BMP_pressure;BME280_temperature;BME280_humidity;BME280_pressure;Samples;Min_cycle;Max_cycle;Signal;HPM_P1;HPM_P2
2021/03/05 00:01:38;;;;;;;16.90;6.50;;;4.90;99.90;;;;;;5097962;28;20233;-78
2021/03/05 00:04:22;;;;;;;13.40;5.33;;;4.90;99.90;;;;;;5105601;28;20196;-78
2021/03/05 00:07:07;;;;;;;13.60;5.20;;;4.90;99.90;;;;;;5117597;28;20220;-78
2021/03/05 00:09:52;;;;;;;14.80;6.23;;;4.90;99.90;;;;;;5118767;28;20233;-79
2021/03/05 00:12:37;;;;;;;14.60;6.17;;;5.00;99.90;;;;;;5096811;28;20309;-78
2021/03/05 00:15:23;;;;;;;14.90;6.67;;;5.00;99.90;;;;;;5111647;28;20248;-78
2021/03/05 00:18:10;;;;;;;16.73;6.67;;;5.00;99.90;;;;;;5102226;28;20212;-79
2021/03/05 00:20:55;;;;;;;12.77;6.53;;;5.00;99.90;;;;;;5102078;28;20209;-78
2021/03/05 00:23:40;;;;;;;16.90;7.30;;;5.00;99.90;;;;;;5108506;28;20236;-77
2021/03/05 00:26:25;;;;;;;17.00;8.27;;;5.00;99.90;;;;;;5113175;28;20720;-77
2021/03/05 00:29:10;;;;;;;16.63;7.70;;;5.00;99.90;;;;;;5111390;28;20240;-77
2021/03/05 00:31:54;;;;;;;18.47;9.00;;;5.10;99.90;;;;;;5114293;28;20580;-77
2021/03/05 00:34:41;;;;;;;18.70;9.20;;;5.10;99.90;;;;;;5101851;28;20309;-77
2021/03/05 00:37:26;;;;;;;16.63;8.60;;;5.10;99.90;;;;;;5094280;28;20211;-77
2021/03/05 00:40:13;;;;;;;17.57;9.23;;;5.10;99.90;;;;;;5094378;28;20209;-77
2021/03/05 00:42:58;;;;;;;18.77;8.60;;;5.10;99.90;;;;;;5095644;28;20233;-77
2021/03/05 00:45:43;;;;;;;19.13;10.30;;;5.10;99.90;;;;;;5104512;28;20299;-77
2021/03/05 00:48:27;;;;;;;16.17;8.40;;;5.10;99.90;;;;;;5097676;28;20256;-77
2021/03/05 00:51:13;;;;;;;17.03;9.17;;;5.10;99.90;;;;;;5099786;28;20276;-77
2021/03/05 00:53:58;;;;;;;18.33;9.23;;;5.10;99.90;;;;;;5101367;28;20258;-77
2021/03/05 00:56:42;;;;;;;15.73;8.37;;;5.10;99.90;;;;;;5098848;28;20246;-77
2021/03/05 00:59:27;;;;;;;16.03;8.03;;;5.00;99.90;;;;;;5105027;28;20205;-77
2021/03/05 01:02:12;;;;;;;19.10;9.77;;;5.00;99.90;;;;;;5108986;28;20221;-77
2021/03/05 01:04:56;;;;;;;16.43;8.80;;;5.00;99.90;;;;;;5111810;28;20210;-77
2021/03/05 01:07:42;;;;;;;15.17;8.10;;;5.00;99.90;;;;;;5100847;28;20215;-77
2021/03/05 01:10:27;;;;;;;15.07;8.20;;;5.00;99.90;;;;;;5111186;28;20296;-77
2021/03/05 01:13:12;;;;;;;17.30;8.60;;;4.90;99.90;;;;;;5093559;28;20619;-77
2021/03/05 01:15:57;;;;;;;17.50;9.00;;;4.90;99.90;;;;;;5097774;28;20568;-77
2021/03/05 01:18:41;;;;;;;17.33;8.23;;;4.90;99.90;;;;;;5099181;28;20232;-77
2021/03/05 01:21:26;;;;;;;15.00;8.80;;;4.80;99.90;;;;;;5101098;28;20889;-77
2021/03/05 01:24:12;;;;;;;13.50;7.57;;;4.80;99.90;;;;;;5114149;28;20700;-77
2021/03/05 01:26:57;;;;;;;12.97;8.03;;;4.70;99.90;;;;;;5113322;28;20215;-76
2021/03/05 01:29:42;;;;;;;14.97;7.67;;;4.60;99.90;;;;;;5095095;28;20205;-77
2021/03/05 01:32:27;;;;;;;15.87;7.77;;;4.50;99.90;;;;;;5094093;28;20283;-77
2021/03/05 01:35:14;;;;;;;13.60;7.90;;;4.50;99.90;;;;;;5101425;28;20212;-77
2021/03/05 01:37:59;;;;;;;15.03;7.97;;;4.40;99.90;;;;;;5094555;28;20205;-77
2021/03/05 01:40:46;;;;;;;14.83;7.23;;;4.30;99.90;;;;;;5109897;28;20239;-76
2021/03/05 01:43:32;;;;;;;14.23;7.60;;;4.20;99.90;;;;;;5096605;28;20237;-77
2021/03/05 01:46:19;;;;;;;15.07;7.70;;;4.00;99.90;;;;;;5108334;28;20209;-76
2021/03/05 01:49:05;;;;;;;14.27;7.53;;;4.00;99.90;;;;;;5110403;28;20296;-77
2021/03/05 01:51:49;;;;;;;16.27;8.00;;;3.80;99.90;;;;;;5098722;28;20244;-77
2021/03/05 01:54:34;;;;;;;14.57;8.00;;;3.70;99.90;;;;;;5102254;28;20212;-78
2021/03/05 01:57:20;;;;;;;12.77;7.50;;;3.60;99.90;;;;;;5102195;28;20255;-77
2021/03/05 02:00:05;;;;;;;15.20;7.63;;;3.50;99.90;;;;;;5105049;28;20201;-77
2021/03/05 02:02:53;;;;;;;17.13;8.10;;;3.40;99.90;;;;;;5095137;28;20727;-77
2021/03/05 02:05:39;;;;;;;15.27;7.53;;;3.30;99.90;;;;;;5102653;28;20197;-78
2021/03/05 02:08:24;;;;;;;15.30;7.87;;;3.20;99.90;;;;;;5100324;28;20326;-78
2021/03/05 02:11:09;;;;;;;13.87;7.80;;;3.10;99.90;;;;;;5099264;28;20228;-78
2021/03/05 02:13:56;;;;;;;16.93;8.40;;;3.00;99.90;;;;;;5114284;28;20212;-78
2021/03/05 02:16:52;;;;;;;15.73;8.03;;;2.90;99.90;;;;;;5094079;28;20247;-78
2021/03/05 02:20:00;;;;;;;15.67;7.67;;;2.80;99.90;;;;;;5094754;28;20229;-78
2021/03/05 02:23:22;;;;;;;15.47;8.73;;;2.70;99.90;;;;;;5109912;28;20263;-78
2021/03/05 02:26:35;;;;;;;16.60;8.17;;;2.60;99.90;;;;;;5095073;28;20208;-78
2021/03/05 02:30:01;;;;;;;14.77;7.67;;;2.50;99.90;;;;;;5100727;28;20294;-78
2021/03/05 02:32:54;;;;;;;14.57;8.33;;;2.40;99.90;;;;;;5087455;28;20220;-79
2021/03/05 02:35:40;;;;;;;15.47;8.13;;;2.30;99.90;;;;;;5103969;28;20247;-78
2021/03/05 02:38:29;;;;;;;20.47;9.43;;;2.20;99.90;;;;;;5102679;28;20205;-78
2021/03/05 02:41:16;;;;;;;16.23;8.63;;;2.20;99.90;;;;;;5108270;28;20265;-77
2021/03/05 02:44:02;;;;;;;15.03;8.23;;;2.10;99.90;;;;;;5105614;28;20197;-78
2021/03/05 02:46:46;;;;;;;17.60;8.97;;;2.00;99.90;;;;;;5111182;28;20231;-77
2021/03/05 02:49:35;;;;;;;18.20;9.00;;;1.90;99.90;;;;;;5105039;28;20255;-78
2021/03/05 02:52:21;;;;;;;21.37;10.53;;;1.90;99.90;;;;;;5099969;28;20224;-78
2021/03/05 02:55:07;;;;;;;18.53;8.97;;;1.80;99.90;;;;;;5111831;28;20308;-78
2021/03/05 02:57:56;;;;;;;18.60;8.73;;;1.80;99.90;;;;;;5112909;28;20285;-78
2021/03/05 03:00:42;;;;;;;20.67;10.60;;;1.70;99.90;;;;;;5091678;28;20212;-77
2021/03/05 03:03:28;;;;;;;18.50;9.93;;;1.70;99.90;;;;;;5093460;28;20322;-78
2021/03/05 03:06:15;;;;;;;20.57;10.20;;;1.60;99.90;;;;;;5101069;28;20331;-78
2021/03/05 03:09:04;;;;;;;21.43;10.50;;;1.60;99.90;;;;;;5096430;28;20602;-77
2021/03/05 03:11:49;;;;;;;21.03;10.67;;;1.50;99.90;;;;;;5101003;28;20588;-78
2021/03/05 03:14:38;;;;;;;29.30;11.57;;;1.40;99.90;;;;;;5100673;28;20233;-78
2021/03/05 03:17:24;;;;;;;22.67;9.90;;;1.40;99.90;;;;;;5096961;28;20295;-78
2021/03/05 03:20:11;;;;;;;19.70;9.77;;;1.40;99.90;;;;;;5100745;28;20668;-77
2021/03/05 03:22:57;;;;;;;18.93;9.47;;;1.30;99.90;;;;;;5110693;28;20220;-77
2021/03/05 03:25:42;;;;;;;20.63;9.40;;;1.30;99.90;;;;;;5111557;28;20204;-78
2021/03/05 03:28:27;;;;;;;21.20;9.70;;;1.20;99.90;;;;;;5104038;28;20204;-78
2021/03/05 03:31:14;;;;;;;20.13;9.73;;;1.20;99.90;;;;;;5097750;28;20231;-77
2021/03/05 03:34:00;;;;;;;22.60;10.23;;;1.10;99.90;;;;;;5112043;28;20278;-77
2021/03/05 03:36:46;;;;;;;19.23;8.37;;;1.10;99.90;;;;;;5093584;28;20299;-77
2021/03/05 03:39:32;;;;;;;20.43;8.90;;;1.10;99.90;;;;;;5093648;28;20243;-77
2021/03/05 03:42:17;;;;;;;19.87;8.77;;;1.00;99.90;;;;;;5112918;28;20304;-77
2021/03/05 03:45:05;;;;;;;20.30;8.80;;;1.00;99.90;;;;;;5094990;28;20193;-76
2021/03/05 03:47:51;;;;;;;19.20;8.93;;;0.90;99.90;;;;;;5092542;28;20201;-76
2021/03/05 03:50:40;;;;;;;24.00;9.37;;;0.90;99.90;;;;;;5107335;28;20236;-76
2021/03/05 03:53:26;;;;;;;22.50;9.30;;;0.80;99.90;;;;;;5105103;28;20216;-76
2021/03/05 03:56:14;;;;;;;20.87;8.13;;;0.80;99.90;;;;;;5103452;28;20227;-77
2021/03/05 03:59:00;;;;;;;19.83;8.50;;;0.80;99.90;;;;;;5110580;28;20252;-76
2021/03/05 04:01:47;;;;;;;18.30;9.23;;;0.70;99.90;;;;;;5125357;28;20231;-76
2021/03/05 04:04:34;;;;;;;19.57;9.57;;;0.70;99.90;;;;;;5124097;28;20196;-76
2021/03/05 04:07:22;;;;;;;16.53;8.37;;;0.60;99.90;;;;;;5134642;28;20200;-77
2021/03/05 04:10:08;;;;;;;15.63;7.40;;;0.60;99.90;;;;;;5098084;28;20197;-77
2021/03/05 04:12:55;;;;;;;16.83;8.47;;;0.60;99.90;;;;;;5103912;28;20220;-77
2021/03/05 04:15:40;;;;;;;20.03;8.27;;;0.50;99.90;;;;;;5105519;28;20513;-76
2021/03/05 04:18:30;;;;;;;15.90;8.40;;;0.40;99.90;;;;;;5104554;28;20205;-77
2021/03/05 04:21:19;;;;;;;19.77;8.50;;;0.40;99.90;;;;;;5105771;28;20743;-77
2021/03/05 04:24:05;;;;;;;16.33;7.03;;;0.40;99.90;;;;;;5104593;28;20220;-76
2021/03/05 04:26:49;;;;;;;16.73;7.47;;;0.30;99.90;;;;;;5102555;28;20201;-77
2021/03/05 04:29:35;;;;;;;16.07;7.63;;;0.30;99.90;;;;;;5096288;28;20250;-77
2021/03/05 04:32:19;;;;;;;11.80;6.27;;;0.20;99.90;;;;;;5103923;28;20709;-77
2021/03/05 04:35:05;;;;;;;15.50;6.40;;;0.20;99.90;;;;;;5105716;28;20216;-77
2021/03/05 04:37:50;;;;;;;15.83;6.97;;;0.20;99.90;;;;;;5099991;28;20209;-76
2021/03/05 04:40:35;;;;;;;12.90;6.73;;;0.10;99.90;;;;;;5099046;28;20672;-76
2021/03/05 04:43:20;;;;;;;14.70;6.93;;;0.10;99.90;;;;;;5102714;28;20223;-76
2021/03/05 04:46:05;;;;;;;15.40;6.93;;;0.10;99.90;;;;;;5110800;28;20196;-77
2021/03/05 04:48:50;;;;;;;14.77;6.70;;;0.00;99.90;;;;;;5101716;28;20323;-77
2021/03/05 04:51:35;;;;;;;16.13;7.37;;;0.00;99.90;;;;;;5095149;28;20304;-77
2021/03/05 04:54:20;;;;;;;14.10;6.10;;;0.00;99.90;;;;;;5105612;28;20294;-77
2021/03/05 04:57:05;;;;;;;14.43;6.87;;;-0.10;99.90;;;;;;5105188;28;20244;-76
2021/03/05 04:59:50;;;;;;;14.87;5.90;;;-0.10;99.90;;;;;;5097728;28;20243;-77
2021/03/05 05:02:35;;;;;;;12.73;6.00;;;-0.20;99.90;;;;;;5102371;28;20287;-77
2021/03/05 05:05:20;;;;;;;14.77;5.93;;;-0.20;99.90;;;;;;5109250;28;20209;-77
2021/03/05 05:08:06;;;;;;;12.77;5.73;;;-0.20;99.90;;;;;;5105560;28;20375;-77
2021/03/05 05:10:51;;;;;;;17.10;7.00;;;-0.30;99.90;;;;;;5097190;28;20243;-78
2021/03/05 05:13:36;;;;;;;16.33;6.67;;;-0.30;99.90;;;;;;5100732;28;20200;-77
2021/03/05 05:16:21;;;;;;;16.77;6.53;;;-0.30;99.90;;;;;;5101890;28;20212;-77
2021/03/05 05:19:07;;;;;;;17.17;7.37;;;-0.40;99.90;;;;;;5105705;28;20255;-77
2021/03/05 05:21:51;;;;;;;12.97;6.90;;;-0.40;99.90;;;;;;5099843;28;20267;-77
2021/03/05 05:24:37;;;;;;;15.90;6.57;;;-0.40;99.90;;;;;;5095223;28;20196;-77
2021/03/05 05:27:22;;;;;;;17.60;7.03;;;-0.40;99.90;;;;;;5100063;28;20212;-78
2021/03/05 05:30:08;;;;;;;13.93;6.70;;;-0.50;99.90;;;;;;5099012;28;20293;-77
2021/03/05 05:32:53;;;;;;;15.07;6.77;;;-0.50;99.90;;;;;;5102558;28;20570;-78
2021/03/05 05:35:38;;;;;;;15.07;6.83;;;-0.60;99.90;;;;;;5103466;28;20216;-78
2021/03/05 05:38:23;;;;;;;17.93;6.37;;;-0.60;99.90;;;;;;5098723;28;20247;-78
2021/03/05 05:41:08;;;;;;;16.70;7.10;;;-0.60;99.90;;;;;;5105567;28;20747;-78
2021/03/05 05:43:53;;;;;;;16.40;6.80;;;-0.70;99.90;;;;;;5102447;28;20212;-78
2021/03/05 05:46:39;;;;;;;16.10;6.17;;;-0.70;99.90;;;;;;5110040;28;20201;-78
2021/03/05 05:49:25;;;;;;;17.53;7.67;;;-0.70;99.90;;;;;;5101955;28;20315;-78
2021/03/05 05:52:18;;;;;;;14.77;6.53;;;-0.70;99.90;;;;;;5111573;28;20221;-78
2021/03/05 05:55:05;;;;;;;13.83;6.10;;;-0.80;99.90;;;;;;5105208;28;20247;-79
2021/03/05 05:57:54;;;;;;;10.93;5.83;;;-0.80;99.90;;;;;;5111296;28;20681;-79
2021/03/05 06:00:40;;;;;;;16.40;5.90;;;-0.80;99.90;;;;;;5107501;28;20232;-78
2021/03/05 06:03:28;;;;;;;14.23;6.57;;;-0.80;99.90;;;;;;5100319;28;20574;-78
2021/03/05 06:06:13;;;;;;;14.43;6.87;;;-0.90;99.90;;;;;;5107630;28;20196;-79
2021/03/05 06:08:59;;;;;;;14.30;6.50;;;-0.80;99.90;;;;;;5101423;28;20263;-79
2021/03/05 06:11:44;;;;;;;13.73;6.10;;;-0.90;99.90;;;;;;5101359;28;20225;-78
2021/03/05 06:14:29;;;;;;;15.00;6.37;;;-1.00;99.90;;;;;;5098074;28;20302;-78
2021/03/05 06:17:14;;;;;;;15.47;6.97;;;-1.00;99.90;;;;;;5099751;28;20288;-78
2021/03/05 06:19:59;;;;;;;13.13;5.13;;;-1.00;99.90;;;;;;5111922;28;20496;-79
2021/03/05 06:22:46;;;;;;;18.97;6.17;;;-1.00;99.90;;;;;;5095980;28;20279;-78
2021/03/05 06:25:35;;;;;;;15.30;6.20;;;-1.00;99.90;;;;;;5099203;28;20192;-77
2021/03/05 06:28:20;;;;;;;13.13;5.63;;;-1.10;99.90;;;;;;5100646;28;20281;-78
2021/03/05 06:31:13;;;;;;;14.23;6.60;;;-1.10;99.90;;;;;;5103099;28;20735;-79
2021/03/05 06:33:59;;;;;;;12.60;5.63;;;-1.10;99.90;;;;;;5103311;28;20219;-78
2021/03/05 06:36:44;;;;;;;12.57;6.53;;;-1.10;99.90;;;;;;5107389;28;20338;-79
2021/03/05 06:39:31;;;;;;;10.93;5.57;;;-1.10;99.90;;;;;;5101602;28;20305;-79
2021/03/05 06:42:17;;;;;;;14.83;5.73;;;-1.10;99.90;;;;;;5106260;28;20274;-79
2021/03/05 06:45:10;;;;;;;13.17;5.93;;;-1.20;99.90;;;;;;5110035;28;20222;-79
2021/03/05 06:48:04;;;;;;;11.90;5.90;;;-1.10;99.90;;;;;;5102169;28;20197;-78
2021/03/05 06:50:49;;;;;;;13.40;6.30;;;-1.20;99.90;;;;;;5103139;28;20251;-77
2021/03/05 06:53:34;;;;;;;14.50;6.20;;;-1.10;99.90;;;;;;5099372;28;20270;-77
2021/03/05 06:56:26;;;;;;;16.03;6.73;;;-1.20;99.90;;;;;;5097046;28;20256;-78
2021/03/05 06:59:13;;;;;;;13.43;6.27;;;-1.30;99.90;;;;;;5094985;28;20265;-77
2021/03/05 07:02:00;;;;;;;16.27;6.37;;;-1.20;99.90;;;;;;5098955;28;20253;-78
2021/03/05 07:04:47;;;;;;;16.87;6.57;;;-1.10;99.90;;;;;;5103767;28;20197;-77
2021/03/05 07:07:41;;;;;;;14.40;5.77;;;-1.20;99.90;;;;;;5103691;28;20213;-78
2021/03/05 07:10:32;;;;;;;18.07;6.73;;;-1.10;99.90;;;;;;5103303;28;20583;-77
2021/03/05 07:13:17;;;;;;;16.47;6.80;;;-1.10;99.90;;;;;;5099702;28;20204;-77
2021/03/05 07:16:03;;;;;;;16.17;6.40;;;-1.10;99.90;;;;;;5104565;28;20704;-78
2021/03/05 07:18:48;;;;;;;18.00;6.47;;;-1.10;99.90;;;;;;5093297;28;20197;-78
2021/03/05 07:21:38;;;;;;;16.67;6.57;;;-1.00;99.90;;;;;;5098325;28;20353;-77
2021/03/05 07:24:24;;;;;;;17.00;5.97;;;-1.00;99.90;;;;;;5094285;28;20556;-78
2021/03/05 07:27:10;;;;;;;14.33;5.87;;;-0.90;99.90;;;;;;5101714;28;20197;-78
2021/03/05 07:29:57;;;;;;;14.27;5.67;;;-0.90;99.90;;;;;;5101831;28;20188;-78
2021/03/05 07:32:46;;;;;;;15.03;5.80;;;-0.90;99.90;;;;;;5099306;28;20244;-78
2021/03/05 07:35:35;;;;;;;14.47;5.93;;;-0.80;99.90;;;;;;5103759;28;20712;-78
2021/03/05 07:38:23;;;;;;;13.80;5.47;;;-0.80;99.90;;;;;;5100173;28;20209;-78
2021/03/05 07:41:09;;;;;;;12.43;5.17;;;-0.80;99.90;;;;;;5110226;28;20229;-79
2021/03/05 07:43:54;;;;;;;12.47;4.70;;;-0.70;99.90;;;;;;5103661;28;20221;-78
2021/03/05 07:46:40;;;;;;;13.57;4.77;;;-0.70;99.90;;;;;;5114281;28;20213;-78
2021/03/05 07:49:31;;;;;;;13.10;4.83;;;-0.60;99.90;;;;;;5096117;28;20740;-79
2021/03/05 07:52:16;;;;;;;10.93;4.60;;;-0.60;99.90;;;;;;5101573;28;20232;-79
2021/03/05 07:55:01;;;;;;;12.80;4.43;;;-0.50;99.90;;;;;;5097745;28;20209;-78
2021/03/05 07:57:47;;;;;;;12.00;3.43;;;-0.50;99.90;;;;;;5105362;28;20700;-78
2021/03/05 08:00:55;;;;;;;9.30;4.00;;;-0.40;99.90;;;;;;5105411;28;20250;-79
2021/03/05 08:03:53;;;;;;;8.63;3.67;;;-0.30;99.90;;;;;;5112297;28;20207;-79
2021/03/05 08:06:40;;;;;;;8.73;3.37;;;-0.20;99.90;;;;;;5095779;28;20236;-77
2021/03/05 08:09:35;;;;;;;11.50;3.87;;;-0.20;99.90;;;;;;5100374;28;20200;-77
2021/03/05 08:12:37;;;;;;;12.53;3.87;;;-0.10;99.90;;;;;;5100412;28;20258;-78
2021/03/05 08:15:23;;;;;;;8.60;3.60;;;0.00;99.90;;;;;;5096944;28;20212;-78
2021/03/05 08:18:19;;;;;;;8.17;3.27;;;0.00;99.90;;;;;;5107411;28;20219;-77
2021/03/05 08:21:03;;;;;;;11.70;3.20;;;0.10;99.90;;;;;;5104585;28;20254;-77
2021/03/05 08:24:23;;;;;;;8.20;3.10;;;0.20;99.90;;;;;;5106448;28;20209;-78
2021/03/05 08:27:13;;;;;;;6.90;2.93;;;0.30;99.90;;;;;;5107820;28;20228;-79
2021/03/05 08:30:03;;;;;;;11.03;3.00;;;0.40;99.90;;;;;;5105622;28;20243;-78
2021/03/05 08:32:51;;;;;;;9.87;2.90;;;0.40;99.90;;;;;;5115848;28;20312;-78
2021/03/05 08:35:49;;;;;;;5.70;2.77;;;0.50;99.90;;;;;;5104082;28;20263;-77
2021/03/05 08:38:36;;;;;;;9.00;3.70;;;0.60;99.90;;;;;;5100481;28;20653;-77
2021/03/05 08:41:26;;;;;;;7.07;2.77;;;0.70;99.90;;;;;;5107429;28;20286;-77
2021/03/05 08:44:11;;;;;;;6.77;2.90;;;0.80;99.90;;;;;;5105993;28;20193;-78
2021/03/05 08:47:05;;;;;;;7.63;2.50;;;0.90;99.90;;;;;;5099791;28;20271;-78
2021/03/05 08:49:50;;;;;;;15.70;2.77;;;1.00;99.90;;;;;;5117412;28;20196;-78
2021/03/05 08:52:36;;;;;;;8.83;3.10;;;1.10;99.90;;;;;;5106028;28;20225;-77
2021/03/05 08:55:21;;;;;;;9.83;3.17;;;1.20;99.90;;;;;;5116378;28;20223;-78
2021/03/05 08:58:07;;;;;;;4.63;2.43;;;1.30;99.90;;;;;;5099935;28;20721;-78
2021/03/05 09:00:52;;;;;;;9.93;2.70;;;1.50;99.90;;;;;;5104144;28;20201;-78
2021/03/05 09:03:39;;;;;;;4.10;1.90;;;1.60;99.90;;;;;;5103723;28;20256;-78
2021/03/05 09:06:24;;;;;;;5.10;1.93;;;1.70;99.90;;;;;;5097910;28;20248;-78
2021/03/05 09:09:09;;;;;;;6.20;1.63;;;1.80;99.90;;;;;;5095954;28;20196;-78
2021/03/05 09:12:09;;;;;;;3.93;1.60;;;1.90;99.90;;;;;;5102313;28;20755;-79
2021/03/05 09:15:01;;;;;;;4.70;1.77;;;2.10;99.90;;;;;;5104636;28;20229;-77
2021/03/05 09:17:46;;;;;;;5.70;1.87;;;2.20;99.90;;;;;;5101290;28;20198;-78
2021/03/05 09:20:35;;;;;;;4.30;1.37;;;2.30;99.90;;;;;;5104945;28;20247;-79
2021/03/05 09:23:26;;;;;;;5.73;1.80;;;2.40;99.90;;;;;;5104675;28;20205;-79
2021/03/05 09:26:14;;;;;;;5.57;1.83;;;2.60;99.90;;;;;;5101718;28;20255;-79
2021/03/05 09:29:03;;;;;;;4.30;1.50;;;2.70;99.90;;;;;;5104019;28;20701;-79
2021/03/05 09:31:59;;;;;;;3.97;1.90;;;3.00;99.90;;;;;;5108676;28;20367;-79
2021/03/05 09:35:30;;;;;;;7.37;1.80;;;3.50;99.90;;;;;;5103642;28;20205;-79
2021/03/05 09:38:29;;;;;;;7.87;1.30;;;4.20;99.90;;;;;;5086909;28;20564;-79
2021/03/05 09:41:20;;;;;;;7.83;1.53;;;5.10;99.90;;;;;;5104371;28;20305;-79
2021/03/05 09:44:06;;;;;;;8.40;1.50;;;6.10;99.90;;;;;;5102807;28;20553;-79
2021/03/05 09:46:56;;;;;;;9.70;1.70;;;7.00;99.90;;;;;;5098626;28;20205;-79
2021/03/05 09:49:41;;;;;;;6.63;1.60;;;7.90;99.90;;;;;;5096701;28;20248;-79
2021/03/05 09:52:26;;;;;;;4.30;1.53;;;8.70;99.90;;;;;;5103990;28;20232;-79
2021/03/05 09:55:23;;;;;;;5.97;1.57;;;9.60;99.90;;;;;;5098020;28;20973;-78
2021/03/05 09:58:12;;;;;;;8.57;2.10;;;10.50;99.90;;;;;;5101854;28;20607;-79
2021/03/05 10:00:58;;;;;;;7.73;1.93;;;11.20;98.80;;;;;;5102917;28;20680;-79
2021/03/05 10:03:43;;;;;;;3.40;1.60;;;12.00;96.70;;;;;;5106198;28;20769;-79
2021/03/05 10:06:29;;;;;;;5.33;2.30;;;12.70;95.00;;;;;;5095089;28;20213;-80
2021/03/05 10:09:15;;;;;;;4.90;1.53;;;13.40;90.10;;;;;;5099141;28;20197;-79
2021/03/05 10:12:00;;;;;;;2.93;1.23;;;14.00;89.50;;;;;;5099608;28;20245;-79
2021/03/05 10:14:47;;;;;;;4.07;1.70;;;14.70;85.30;;;;;;5097622;28;20209;-79
2021/03/05 10:17:39;;;;;;;3.67;0.93;;;15.30;75.50;;;;;;5099517;28;20249;-78
2021/03/05 10:20:33;;;;;;;3.23;1.07;;;15.90;74.60;;;;;;5096213;28;20214;-78
2021/03/05 10:23:18;;;;;;;2.60;1.23;;;16.50;71.30;;;;;;5097071;28;20220;-79
2021/03/05 10:26:11;;;;;;;4.40;1.27;;;17.00;64.80;;;;;;5104316;28;20243;-79
2021/03/05 10:28:59;;;;;;;2.47;1.20;;;17.40;61.70;;;;;;5101740;28;20282;-79
2021/03/05 10:31:48;;;;;;;5.47;1.30;;;17.90;58.60;;;;;;5092762;28;20339;-78
2021/03/05 10:34:33;;;;;;;6.30;1.40;;;18.30;57.20;;;;;;5093291;28;20232;-78
2021/03/05 10:37:19;;;;;;;2.87;1.10;;;18.60;56.70;;;;;;5094399;28;20232;-78
2021/03/05 10:40:09;;;;;;;4.23;1.77;;;18.90;56.40;;;;;;5099214;28;20223;-80
2021/03/05 10:43:08;;;;;;;8.00;1.60;;;19.20;53.40;;;;;;5101425;28;20225;-80
2021/03/05 10:45:54;;;;;;;2.80;1.40;;;19.50;52.60;;;;;;5108236;28;20226;-79
2021/03/05 10:48:38;;;;;;;4.33;1.47;;;19.60;52.20;;;;;;5103962;28;20846;-79
2021/03/05 10:51:23;;;;;;;4.77;1.57;;;19.90;54.00;;;;;;5094392;28;20233;-79
2021/03/05 10:54:09;;;;;;;3.87;1.63;;;20.20;52.00;;;;;;5094230;28;20205;-78
2021/03/05 10:56:55;;;;;;;3.93;1.47;;;20.50;50.00;;;;;;5104621;28;20327;-78
2021/03/05 10:59:41;;;;;;;4.50;1.33;;;20.70;48.50;;;;;;5099572;28;20224;-79
2021/03/05 11:02:25;;;;;;;5.77;1.57;;;20.90;47.60;;;;;;5095182;28;20259;-79
2021/03/05 11:05:11;;;;;;;4.07;1.60;;;21.20;48.20;;;;;;5093726;28;20663;-79
2021/03/05 11:07:55;;;;;;;6.93;1.37;;;21.40;47.60;;;;;;5115565;28;20213;-79
2021/03/05 11:10:41;;;;;;;2.80;1.30;;;21.60;47.80;;;;;;5116687;28;20196;-79
2021/03/05 11:13:26;;;;;;;2.40;0.90;;;21.90;45.70;;;;;;5124692;28;20220;-79
2021/03/05 11:16:10;;;;;;;1.87;0.97;;;22.20;44.70;;;;;;5120611;28;20228;-78
2021/03/05 11:18:56;;;;;;;4.67;0.90;;;22.30;43.10;;;;;;5112080;28;20200;-81
2021/03/05 11:21:41;;;;;;;3.43;0.93;;;22.50;43.00;;;;;;5116830;28;20593;-79
2021/03/05 11:24:25;;;;;;;2.93;1.03;;;22.60;40.90;;;;;;5102881;28;20264;-80
2021/03/05 11:27:11;;;;;;;4.27;1.27;;;22.80;41.60;;;;;;5116375;28;20205;-80
2021/03/05 11:29:56;;;;;;;2.53;1.10;;;23.00;41.10;;;;;;5110832;28;20621;-80
2021/03/05 11:32:40;;;;;;;4.00;1.20;;;22.90;40.70;;;;;;5104124;28;20219;-80
2021/03/05 11:35:25;;;;;;;4.80;1.30;;;23.10;39.50;;;;;;5105315;28;20219;-80
2021/03/05 11:38:10;;;;;;;3.43;0.90;;;23.20;40.70;;;;;;5097361;28;20726;-78
2021/03/05 11:40:55;;;;;;;5.63;1.40;;;23.30;38.60;;;;;;5111786;28;20603;-79
2021/03/05 11:43:43;;;;;;;9.80;1.33;;;23.40;39.80;;;;;;5103158;28;20229;-81
2021/03/05 11:46:28;;;;;;;3.33;1.30;;;23.50;40.40;;;;;;5097087;28;20204;-81
2021/03/05 11:49:13;;;;;;;5.87;1.13;;;23.70;38.80;;;;;;5117106;28;20257;-81
2021/03/05 11:51:58;;;;;;;7.67;1.10;;;23.90;40.40;;;;;;5099992;28;20220;-81
2021/03/05 11:54:42;;;;;;;3.80;1.03;;;24.10;39.10;;;;;;5100148;28;20717;-81
2021/03/05 11:57:27;;;;;;;1.97;1.00;;;24.30;37.70;;;;;;5099986;28;20777;-81
2021/03/05 12:03:56;;;;;;;3.27;1.03;;;24.80;40.90;;;;;;5105861;28;20563;-81
2021/03/05 12:06:41;;;;;;;2.33;1.00;;;25.10;35.80;;;;;;5113892;28;20340;-81
2021/03/05 12:09:26;;;;;;;1.00;0.70;;;25.30;36.80;;;;;;5099574;28;20201;-80
2021/03/05 12:12:12;;;;;;;2.53;0.70;;;25.40;36.50;;;;;;5109397;28;20224;-81
2021/03/05 12:14:57;;;;;;;3.13;0.90;;;25.60;37.50;;;;;;5109591;28;20235;-81
2021/03/05 12:17:46;;;;;;;1.63;0.70;;;25.90;37.60;;;;;;5098504;28;20230;-81
2021/03/05 12:20:31;;;;;;;3.57;0.73;;;26.10;38.50;;;;;;5100974;28;20285;-81
2021/03/05 12:23:16;;;;;;;1.80;1.00;;;26.30;40.30;;;;;;5100071;28;20632;-80
2021/03/05 12:29:44;;;;;;;2.60;1.27;;;26.90;36.40;;;;;;5062773;28;20231;-80
2021/03/05 12:32:50;;;;;;;2.47;0.70;;;27.20;35.80;;;;;;5075936;28;20302;-79
2021/03/05 12:35:44;;;;;;;3.13;0.90;;;27.40;36.30;;;;;;5112076;28;20237;-80
2021/03/05 12:39:25;;;;;;;4.97;1.17;;;27.50;33.90;;;;;;5098923;28;20212;-80
2021/03/05 12:42:55;;;;;;;;;;;;;;;;;;;;;
2021/03/05 12:45:53;;;;;;;2.00;0.77;;;27.50;35.70;;;;;;4954570;28;20246;-80
2021/03/05 12:48:38;;;;;;;2.47;0.93;;;27.50;31.90;;;;;;5010983;28;20631;-80
2021/03/05 12:51:23;;;;;;;2.47;0.90;;;27.50;32.00;;;;;;5102562;28;20319;-80
2021/03/05 12:54:29;;;;;;;7.33;0.90;;;27.40;32.00;;;;;;5105579;28;20227;-80
2021/03/05 12:57:38;;;;;;;2.77;0.90;;;27.30;32.80;;;;;;5107398;28;20199;-80
2021/03/05 13:03:59;;;;;;;2.53;0.80;;;27.20;33.70;;;;;;5087492;23;20298;-81
2021/03/05 13:10:30;;;;;;;3.43;1.10;;;27.00;34.40;;;;;;5038134;28;20258;-81
2021/03/05 13:13:15;;;;;;;2.83;0.70;;;26.90;33.40;;;;;;5033190;28;20708;-79
2021/03/05 13:16:00;;;;;;;5.97;0.80;;;26.90;33.00;;;;;;5036778;28;20205;-81
2021/03/05 13:18:46;;;;;;;5.80;1.10;;;26.90;33.30;;;;;;5030400;28;20227;-81
2021/03/05 13:21:32;;;;;;;3.17;0.97;;;26.90;33.70;;;;;;5037746;28;20276;-81
2021/03/05 13:24:18;;;;;;;1.77;0.60;;;26.80;32.30;;;;;;5041859;28;20205;-80
2021/03/05 13:27:03;;;;;;;4.97;0.73;;;26.80;34.30;;;;;;5039806;28;20206;-80
2021/03/05 13:29:47;;;;;;;1.93;0.60;;;26.80;34.50;;;;;;5034694;28;20620;-81
2021/03/05 13:32:32;;;;;;;1.23;0.50;;;26.70;33.20;;;;;;5035824;28;20228;-81
2021/03/05 13:35:17;;;;;;;2.87;0.90;;;26.60;32.50;;;;;;5038428;28;20678;-81
2021/03/05 13:38:03;;;;;;;1.17;0.60;;;26.60;32.40;;;;;;5032955;28;20203;-79
2021/03/05 13:40:48;;;;;;;4.23;0.67;;;26.50;33.40;;;;;;5038484;28;20209;-80
2021/03/05 13:43:32;;;;;;;4.03;0.90;;;26.50;32.40;;;;;;5037898;28;20212;-81
2021/03/05 13:46:18;;;;;;;2.93;0.70;;;26.40;33.70;;;;;;5035887;28;20322;-81
2021/03/05 13:52:36;;;;;;;0.80;0.60;;;26.30;34.80;;;;;;5032357;28;20236;-81
2021/03/05 13:55:22;;;;;;;8.13;0.97;;;26.30;35.20;;;;;;5031466;28;20736;-82
2021/03/05 13:58:07;;;;;;;1.40;0.53;;;26.30;33.30;;;;;;5036103;28;20261;-81
2021/03/05 14:00:52;;;;;;;2.83;0.93;;;26.40;33.90;;;;;;5032007;28;20573;-82
2021/03/05 14:03:36;;;;;;;14.80;2.00;;;26.50;34.50;;;;;;5025859;28;20322;-81
2021/03/05 14:06:21;;;;;;;3.93;0.60;;;26.50;33.40;;;;;;5037537;28;20288;-81
2021/03/05 14:09:06;;;;;;;1.77;0.60;;;26.50;33.10;;;;;;5035396;28;20214;-82
2021/03/05 14:11:52;;;;;;;3.60;0.80;;;26.50;36.00;;;;;;5031985;28;20256;-80
2021/03/05 14:14:36;;;;;;;3.60;0.70;;;26.50;33.70;;;;;;5031123;28;20263;-81
2021/03/05 14:17:21;;;;;;;11.23;1.10;;;26.50;34.00;;;;;;5036371;28;20252;-81
2021/03/05 14:20:07;;;;;;;3.40;1.00;;;26.30;33.60;;;;;;5035635;28;20209;-82
2021/03/05 14:22:52;;;;;;;3.10;0.80;;;26.30;34.00;;;;;;5039719;28;20238;-82
2021/03/05 14:25:37;;;;;;;1.73;0.70;;;26.20;33.70;;;;;;5031145;28;20231;-82
2021/03/05 14:28:23;;;;;;;2.47;0.73;;;26.20;33.80;;;;;;5032809;28;20248;-82
2021/03/05 14:31:08;;;;;;;3.17;0.83;;;26.10;33.20;;;;;;5022705;28;20276;-81
2021/03/05 14:33:56;;;;;;;4.13;0.87;;;26.00;33.70;;;;;;5036030;28;20231;-82
2021/03/05 14:36:41;;;;;;;1.47;0.67;;;25.90;35.10;;;;;;5037680;28;20715;-81
2021/03/05 14:39:26;;;;;;;3.10;0.90;;;25.70;34.10;;;;;;5035497;28;20665;-81
2021/03/05 14:42:11;;;;;;;0.90;0.63;;;25.70;34.60;;;;;;5036280;28;20251;-82
2021/03/05 14:44:57;;;;;;;1.50;0.83;;;25.50;35.10;;;;;;5032768;28;20309;-82
2021/03/05 14:47:41;;;;;;;0.60;0.50;;;25.40;35.50;;;;;;5028973;28;20304;-82
2021/03/05 14:50:26;;;;;;;2.50;0.80;;;25.30;36.00;;;;;;5036524;28;20216;-82